createdAt,value
2023-01-12T00:01:55.906Z,99380.19
2023-01-12T00:04:23.560Z,99347.44
2023-01-12T00:06:51.137Z,99377.88
2023-01-12T00:09:18.625Z,99367.78
2023-01-12T00:11:46.155Z,99368.59
2023-01-12T00:14:15.451Z,99379.38
2023-01-12T00:16:43.330Z,99377.69
2023-01-12T00:19:12.764Z,99381.31
2023-01-12T00:21:56.335Z,99377.50
2023-01-12T00:24:25.567Z,99383.09
2023-01-12T00:26:53.672Z,99376.97
2023-01-12T00:29:23.161Z,99376.44
2023-01-12T00:31:50.840Z,99374.31
2023-01-12T00:34:18.332Z,99371.00
2023-01-12T00:36:47.073Z,99377.06
2023-01-12T00:39:15.028Z,99375.28
2023-01-12T00:42:00.800Z,99347.97
2023-01-12T00:44:47.154Z,99372.56
2023-01-12T00:47:15.203Z,99388.84
2023-01-12T00:49:43.305Z,99381.72
2023-01-12T00:52:18.254Z,99388.13
2023-01-12T00:54:52.924Z,99377.28
2023-01-12T00:57:20.387Z,99377.09
2023-01-12T00:59:49.243Z,99377.00
2023-01-12T01:02:16.859Z,99376.47
2023-01-12T01:04:44.466Z,99373.50
2023-01-12T01:07:12.595Z,99374.50
2023-01-12T01:09:44.225Z,99378.94
2023-01-12T01:12:11.978Z,99368.09
2023-01-12T01:14:39.617Z,99372.47
2023-01-12T01:17:08.530Z,99378.91
2023-01-12T01:19:36.942Z,99370.19
2023-01-12T01:22:04.599Z,99367.72
2023-01-12T01:24:32.095Z,99359.31
2023-01-12T01:26:59.562Z,99371.56
2023-01-12T01:29:27.052Z,99350.44
2023-01-12T01:31:55.713Z,99352.41
2023-01-12T01:34:24.655Z,99360.34
2023-01-12T01:36:52.135Z,99357.16
2023-01-12T01:39:19.742Z,99352.09
2023-01-12T01:41:47.964Z,99357.03
2023-01-12T01:44:51.100Z,99358.00
2023-01-12T01:47:24.391Z,99324.63
2023-01-12T01:49:55.498Z,99345.66
2023-01-12T01:52:26.122Z,99360.13
2023-01-12T01:54:56.108Z,99353.66
2023-01-12T01:57:25.491Z,99341.34
2023-01-12T01:59:55.530Z,99328.34
2023-01-12T02:02:24.089Z,99302.72
2023-01-12T02:04:54.184Z,99317.59
2023-01-12T02:07:22.135Z,99309.84
2023-01-12T02:09:52.058Z,99323.91
2023-01-12T02:12:37.646Z,99342.56
2023-01-12T02:15:24.976Z,99332.97
2023-01-12T02:18:03.528Z,99330.78
2023-01-12T02:20:59.125Z,99339.59
2023-01-12T02:24:04.059Z,99336.22
2023-01-12T02:27:18.902Z,99318.66
2023-01-12T02:30:24.569Z,99324.53
2023-01-12T02:33:01.671Z,99317.25
2023-01-12T02:35:34.052Z,99322.63
2023-01-12T02:38:08.147Z,99309.31
2023-01-12T02:40:38.113Z,99314.25
2023-01-12T02:43:10.144Z,99304.16
2023-01-12T02:45:43.324Z,99307.94
2023-01-12T02:48:24.082Z,99301.03
2023-01-12T02:50:55.546Z,99303.13
2023-01-12T02:53:25.993Z,99304.78
2023-01-12T02:55:53.904Z,99284.03
2023-01-12T02:58:25.759Z,99297.34
2023-01-12T03:00:55.950Z,99292.38
2023-01-12T03:03:25.716Z,99273.47
2023-01-12T03:05:56.508Z,99246.13
2023-01-12T03:08:34.811Z,99265.25
2023-01-12T03:11:07.611Z,99279.50
2023-01-12T03:13:37.172Z,99263.22
2023-01-12T03:16:10.004Z,99268.63
2023-01-12T03:18:45.032Z,99248.50
2023-01-12T03:21:18.001Z,99240.78
2023-01-12T03:23:48.503Z,99253.50
2023-01-12T03:26:19.381Z,99244.13
2023-01-12T03:28:51.052Z,99248.78
2023-01-12T03:31:18.703Z,99250.97
2023-01-12T03:33:47.719Z,99244.06
2023-01-12T03:36:22.520Z,99241.06
2023-01-12T03:38:59.056Z,99227.84
2023-01-12T03:41:37.985Z,99225.94
2023-01-12T03:44:09.036Z,99231.84
2023-01-12T03:46:40.801Z,99221.25
2023-01-12T03:49:12.463Z,99242.38
2023-01-12T03:51:45.746Z,99232.53
2023-01-12T03:54:14.253Z,99235.13
2023-01-12T03:56:51.046Z,99243.63
2023-01-12T03:59:19.529Z,99225.91
2023-01-12T04:01:53.311Z,99229.91
2023-01-12T04:04:22.943Z,99215.00
2023-01-12T04:06:50.480Z,99220.41
2023-01-12T04:09:19.353Z,99215.81
2023-01-12T04:12:07.220Z,99212.00
2023-01-12T04:14:34.772Z,99192.31
2023-01-12T04:17:02.305Z,99195.19
2023-01-12T04:19:32.492Z,99184.84
2023-01-12T04:22:19.951Z,99185.03
2023-01-12T04:24:49.363Z,99197.44
2023-01-12T04:27:17.121Z,99174.94
2023-01-12T04:29:45.620Z,99163.56
2023-01-12T04:32:15.578Z,99162.75
2023-01-12T04:34:46.246Z,99167.28
2023-01-12T04:38:11.743Z,99161.47
2023-01-12T04:40:39.251Z,99157.44
2023-01-12T04:43:08.682Z,99154.53
2023-01-12T04:45:42.901Z,99151.09
2023-01-12T04:48:13.441Z,99151.47
2023-01-12T04:50:45.236Z,99143.19
2023-01-12T04:53:18.488Z,99142.66
2023-01-12T04:55:46.246Z,99134.91
2023-01-12T04:58:13.900Z,99139.09
2023-01-12T05:00:41.676Z,99138.56
2023-01-12T05:03:12.167Z,99122.38
2023-01-12T05:05:39.956Z,99132.38
2023-01-12T05:08:27.627Z,99132.91
2023-01-12T05:10:56.872Z,99128.91
2023-01-12T05:13:25.423Z,99114.38
2023-01-12T05:15:52.888Z,99141.38
2023-01-12T05:18:20.522Z,99111.81
2023-01-12T05:20:48.100Z,99118.06
2023-01-12T05:23:16.969Z,99104.38
2023-01-12T05:25:44.491Z,99101.16
2023-01-12T05:28:11.969Z,99106.56
2023-01-12T05:30:40.096Z,99105.84
2023-01-12T05:33:07.679Z,99085.09
2023-01-12T05:35:35.250Z,99075.97
2023-01-12T05:38:03.806Z,99070.06
2023-01-12T05:40:32.699Z,99062.00
2023-01-12T05:43:19.080Z,99058.75
2023-01-12T05:45:46.774Z,99048.69
2023-01-12T05:48:14.506Z,99054.81
2023-01-12T05:50:42.319Z,99037.75
2023-01-12T05:53:10.404Z,99055.16
2023-01-12T05:55:39.749Z,99048.97
2023-01-12T05:58:08.217Z,99026.59
2023-01-12T06:00:37.873Z,99044.97
2023-01-12T06:03:05.958Z,99033.63
2023-01-12T06:05:33.556Z,99034.19
2023-01-12T06:08:03.918Z,99032.44
2023-01-12T06:10:34.615Z,99028.59
2023-01-12T06:13:21.269Z,99051.00
2023-01-12T06:15:49.090Z,99024.97
2023-01-12T06:18:18.680Z,99027.78
2023-01-12T06:20:46.312Z,99032.63
2023-01-12T06:23:14.070Z,99014.63
2023-01-12T06:25:41.584Z,99026.69
2023-01-12T06:28:13.813Z,99014.28
2023-01-12T06:30:41.283Z,99007.78
2023-01-12T06:33:08.779Z,99022.84
2023-01-12T06:35:36.299Z,99015.22
2023-01-12T06:38:04.013Z,99030.06
2023-01-12T06:40:31.851Z,99021.66
2023-01-12T06:43:02.129Z,99002.78
2023-01-12T06:45:33.499Z,99017.66
2023-01-12T06:48:01.039Z,99005.41
2023-01-12T06:50:28.581Z,99010.34
2023-01-12T06:52:58.830Z,98980.88
2023-01-12T06:55:26.493Z,98977.31
2023-01-12T06:57:54.074Z,98967.63
2023-01-12T07:00:22.318Z,98984.88
2023-01-12T07:02:54.737Z,98967.91
2023-01-12T07:05:22.349Z,98974.75
2023-01-12T07:07:49.901Z,98961.13
2023-01-12T07:10:18.279Z,98941.88
2023-01-12T07:12:45.756Z,98962.88
2023-01-12T07:15:14.488Z,98934.50
2023-01-12T07:17:41.968Z,98959.50
2023-01-12T07:20:12.143Z,98947.75
2023-01-12T07:22:39.625Z,98938.44
2023-01-12T07:25:07.751Z,98940.34
2023-01-12T07:27:35.269Z,98934.94
2023-01-12T07:30:02.797Z,98929.09
2023-01-12T07:32:30.408Z,98931.03
2023-01-12T07:34:57.893Z,98931.13
2023-01-12T07:37:26.801Z,98911.66
2023-01-12T07:39:54.307Z,98914.69
2023-01-12T07:42:24.802Z,98914.25
2023-01-12T07:44:53.071Z,98898.28
2023-01-12T07:47:20.623Z,98871.63
2023-01-12T07:49:48.263Z,98889.59
2023-01-12T07:52:15.739Z,98885.03
2023-01-12T07:54:44.553Z,98900.19
2023-01-12T07:57:12.455Z,98918.88
2023-01-12T07:59:40.234Z,98925.09
2023-01-12T08:02:08.007Z,98906.47
2023-01-12T08:04:35.526Z,98915.50
2023-01-12T08:07:03.204Z,98922.16
2023-01-12T08:09:31.471Z,98919.69
2023-01-12T08:12:00.476Z,98935.03
2023-01-12T08:14:33.204Z,98912.66
2023-01-12T08:17:02.936Z,98933.75
2023-01-12T08:19:37.347Z,98924.25
2023-01-12T08:22:12.453Z,98945.16
2023-01-12T08:24:46.673Z,98925.72
2023-01-12T08:27:19.595Z,98934.84
2023-01-12T08:29:50.737Z,98937.75
2023-01-12T08:32:19.080Z,98932.19
2023-01-12T08:36:35.648Z,98930.41
2023-01-12T08:41:25.875Z,98932.78
2023-01-12T08:44:06.457Z,98929.69
2023-01-12T08:46:35.475Z,98939.91
2023-01-12T08:49:05.720Z,98912.41
2023-01-12T08:51:34.979Z,98875.38
2023-01-12T08:54:03.340Z,98905.97
2023-01-12T08:56:32.460Z,98907.84
2023-01-12T08:59:00.061Z,98904.13
2023-01-12T09:01:32.356Z,98885.31
2023-01-12T09:05:15.519Z,98887.44
2023-01-12T09:07:47.224Z,98925.47
2023-01-12T09:10:15.265Z,98914.53
2023-01-12T09:12:44.658Z,98923.19
2023-01-12T09:15:12.768Z,98913.78
2023-01-12T09:17:40.317Z,98921.91
2023-01-12T09:20:08.258Z,98936.53
2023-01-12T09:22:35.836Z,98921.38
2023-01-12T09:25:03.405Z,98888.06
2023-01-12T09:27:33.358Z,98926.19
2023-01-12T09:30:02.315Z,98938.69
2023-01-12T09:32:36.917Z,98948.19
2023-01-12T09:35:05.056Z,98918.63
2023-01-12T09:37:33.210Z,98926.72
2023-01-12T09:40:01.107Z,98943.16
2023-01-12T09:42:46.173Z,98927.72
2023-01-12T09:45:37.618Z,98946.06
2023-01-12T09:48:06.722Z,98949.69
2023-01-12T09:50:36.550Z,98946.44
2023-01-12T09:53:06.994Z,98952.44
2023-01-12T09:55:42.814Z,98942.88
2023-01-12T09:58:21.237Z,98928.22
2023-01-12T10:00:53.579Z,98953.22
2023-01-12T10:03:28.356Z,98949.13
2023-01-12T10:05:58.221Z,98959.34
2023-01-12T10:08:31.649Z,98943.25
2023-01-12T10:11:06.683Z,98947.56
2023-01-12T10:13:45.493Z,98937.31
2023-01-12T10:16:18.401Z,98956.50
2023-01-12T10:18:47.987Z,98920.34
2023-01-12T10:21:15.609Z,98957.31
2023-01-12T10:23:43.474Z,98956.78
2023-01-12T10:26:18.673Z,98938.69
2023-01-12T10:28:47.253Z,98950.41
2023-01-12T10:31:18.083Z,98930.13
2023-01-12T10:34:03.069Z,98962.97
2023-01-12T10:36:31.110Z,98957.88
2023-01-12T10:39:03.030Z,98937.34
2023-01-12T10:41:31.418Z,98956.38
2023-01-12T10:44:15.252Z,98962.06
2023-01-12T10:46:44.172Z,98958.59
2023-01-12T10:49:19.638Z,98963.34
2023-01-12T10:51:53.688Z,98969.81
2023-01-12T10:54:22.114Z,98968.66
2023-01-12T10:56:56.782Z,98955.00
2023-01-12T10:59:26.542Z,98963.06
2023-01-12T11:02:13.812Z,98963.72
2023-01-12T11:04:43.051Z,98953.88
2023-01-12T11:07:12.098Z,98956.38
2023-01-12T11:09:40.446Z,98948.03
2023-01-12T11:12:21.332Z,98963.38
2023-01-12T11:14:59.438Z,98954.69
2023-01-12T11:17:39.780Z,98960.50
2023-01-12T11:20:16.469Z,98946.28
2023-01-12T11:22:44.296Z,98940.75
2023-01-12T11:25:14.946Z,98963.03
2023-01-12T11:27:46.724Z,98937.94
2023-01-12T11:30:20.939Z,98949.97
2023-01-12T11:32:55.243Z,98948.25
2023-01-12T11:35:34.932Z,98928.25
2023-01-12T11:38:11.236Z,98957.66
2023-01-12T11:40:39.783Z,98951.88
2023-01-12T11:43:34.281Z,98951.06
2023-01-12T11:46:04.981Z,98951.66
2023-01-12T11:48:38.520Z,98932.84
2023-01-12T11:51:06.168Z,98955.56
2023-01-12T11:53:36.981Z,98929.06
2023-01-12T11:56:11.249Z,98918.22
2023-01-12T11:58:46.444Z,98946.94
2023-01-12T12:01:19.045Z,98937.81
2023-01-12T12:03:59.454Z,98926.59
2023-01-12T12:06:46.170Z,98936.88
2023-01-12T12:09:27.393Z,98920.91
2023-01-12T12:11:58.561Z,98942.47
2023-01-12T12:14:44.552Z,98911.50
2023-01-12T12:17:15.495Z,98946.94
2023-01-12T12:19:52.257Z,98942.50
2023-01-12T12:22:31.042Z,98935.28
2023-01-12T12:25:08.810Z,98935.50
2023-01-12T12:27:48.756Z,98926.53
2023-01-12T12:30:33.566Z,98943.13
2023-01-12T12:33:06.415Z,98930.44
2023-01-12T12:35:45.125Z,98916.69
2023-01-12T12:38:24.586Z,98931.06
2023-01-12T12:41:20.170Z,98932.25
2023-01-12T12:44:13.092Z,98931.06
2023-01-12T12:46:48.576Z,98932.66
2023-01-12T12:49:22.066Z,98925.75
2023-01-12T12:51:52.152Z,98914.03
2023-01-12T12:54:21.489Z,98926.91
2023-01-12T12:56:49.946Z,98930.91
2023-01-12T12:59:54.464Z,98941.06
2023-01-12T13:03:02.129Z,98927.03
2023-01-12T13:05:44.763Z,98916.59
2023-01-12T13:08:22.051Z,98919.47
2023-01-12T13:10:52.248Z,98923.75
2023-01-12T13:13:27.333Z,98913.50
2023-01-12T13:16:45.734Z,98924.75
2023-01-12T13:19:15.641Z,98920.84
2023-01-12T13:21:56.313Z,98935.75
2023-01-12T13:24:40.436Z,98932.34
2023-01-12T13:27:47.294Z,98924.53
2023-01-12T13:30:39.257Z,98925.59
2023-01-12T13:33:18.795Z,98925.53
2023-01-12T13:36:02.457Z,98941.28
2023-01-12T13:38:38.594Z,98902.63
2023-01-12T13:41:42.935Z,98914.69
2023-01-12T13:44:16.157Z,98911.25
2023-01-12T13:46:46.360Z,98932.75
2023-01-12T13:49:30.391Z,98922.91
2023-01-12T13:52:03.731Z,98911.66
2023-01-12T13:54:31.993Z,98893.06
2023-01-12T13:57:02.824Z,98931.72
2023-01-12T13:59:31.220Z,98913.06
2023-01-12T14:01:59.302Z,98940.47
2023-01-12T14:04:37.668Z,98947.78
2023-01-12T14:07:12.859Z,98930.41
2023-01-12T14:09:47.746Z,98939.91
2023-01-12T14:13:07.048Z,98933.88
2023-01-12T14:15:55.927Z,98923.88
2023-01-12T14:18:25.538Z,98935.19
2023-01-12T14:20:55.072Z,98930.44
2023-01-12T14:23:29.035Z,98934.88
2023-01-12T14:26:08.528Z,98928.66
2023-01-12T14:28:37.027Z,98923.53
2023-01-12T14:31:07.434Z,98937.41
2023-01-12T14:33:37.975Z,98936.38
2023-01-12T14:36:08.165Z,98920.44
2023-01-12T14:38:36.578Z,98925.09
2023-01-12T14:41:28.397Z,98909.28
2023-01-12T14:44:13.830Z,98941.25
2023-01-12T14:46:50.267Z,98933.84
2023-01-12T14:49:21.172Z,98923.91
2023-01-12T14:51:52.644Z,98913.06
2023-01-12T14:54:21.901Z,98922.28
2023-01-12T14:56:56.292Z,98928.63
2023-01-12T14:59:25.700Z,98935.09
2023-01-12T15:01:55.136Z,98894.97
2023-01-12T15:04:24.948Z,98908.06
2023-01-12T15:07:01.956Z,98925.75
2023-01-12T15:09:31.719Z,98915.94
2023-01-12T15:11:59.815Z,98930.22
2023-01-12T15:14:30.068Z,98924.88
2023-01-12T15:17:16.454Z,98920.03
2023-01-12T15:20:01.234Z,98896.66
2023-01-12T15:22:47.359Z,98925.50
2023-01-12T15:25:34.224Z,98918.13
2023-01-12T15:28:02.720Z,98912.41
2023-01-12T15:30:31.243Z,98897.44
2023-01-12T15:33:01.013Z,98922.41
2023-01-12T15:35:30.400Z,98899.84
2023-01-12T15:38:05.212Z,98891.06
2023-01-12T15:40:35.019Z,98899.16
2023-01-12T15:43:04.731Z,98919.47
2023-01-12T15:45:35.092Z,98912.50
2023-01-12T15:48:04.926Z,98929.13
2023-01-12T15:50:33.283Z,98911.38
2023-01-12T15:53:01.564Z,98918.69
2023-01-12T15:55:31.340Z,98919.72
2023-01-12T15:57:59.177Z,98924.13
2023-01-12T16:00:30.320Z,98891.19
2023-01-12T16:02:58.070Z,98916.69
2023-01-12T16:05:27.412Z,98899.44
2023-01-12T16:07:55.347Z,98919.63
2023-01-12T16:10:23.205Z,98901.88
2023-01-12T16:12:50.852Z,98927.22
2023-01-12T16:15:20.311Z,98919.84
2023-01-12T16:17:48.750Z,98904.16
2023-01-12T16:20:17.526Z,98901.81
2023-01-12T16:22:47.651Z,98907.06
2023-01-12T16:25:16.255Z,98920.38
2023-01-12T16:27:44.716Z,98909.56
2023-01-12T16:30:16.146Z,98917.50
2023-01-12T16:32:46.696Z,98903.97
2023-01-12T16:35:15.736Z,98897.66
2023-01-12T16:37:44.668Z,98915.47
2023-01-12T16:40:15.044Z,98909.69
2023-01-12T16:42:43.080Z,98903.81
2023-01-12T16:45:11.807Z,98895.41
2023-01-12T16:47:40.161Z,98892.69
2023-01-12T16:50:08.699Z,98905.16
2023-01-12T16:52:42.438Z,98902.03
2023-01-12T16:55:11.003Z,98907.22
2023-01-12T16:57:41.065Z,98881.63
2023-01-12T17:00:10.435Z,98879.38
2023-01-12T17:02:38.299Z,98881.66
2023-01-12T17:05:08.454Z,98882.69
2023-01-12T17:07:39.229Z,98868.88
2023-01-12T17:10:09.021Z,98864.50
2023-01-12T17:12:36.712Z,98864.75
2023-01-12T17:15:09.429Z,98869.25
2023-01-12T17:17:38.294Z,98867.88
2023-01-12T17:20:06.865Z,98878.06
2023-01-12T17:22:34.737Z,98858.31
2023-01-12T17:25:02.563Z,98857.97
2023-01-12T17:27:32.043Z,98861.63
2023-01-12T17:29:59.794Z,98857.56
2023-01-12T17:32:29.624Z,98851.22
2023-01-12T17:34:57.794Z,98864.19
2023-01-12T17:37:25.893Z,98854.81
2023-01-12T17:39:53.672Z,98844.75
2023-01-12T17:42:39.471Z,98844.38
2023-01-12T17:45:08.606Z,98870.38
2023-01-12T17:47:38.179Z,98841.69
2023-01-12T17:50:06.578Z,98850.44
2023-01-12T17:52:35.811Z,98852.78
2023-01-12T17:55:04.474Z,98838.25
2023-01-12T17:57:36.900Z,98834.63
2023-01-12T18:00:06.726Z,98856.56
2023-01-12T18:02:42.826Z,98830.50
2023-01-12T18:05:14.013Z,98836.72
2023-01-12T18:07:43.655Z,98839.78
2023-01-12T18:10:13.072Z,98850.31
2023-01-12T18:12:42.639Z,98818.50
2023-01-12T18:15:19.987Z,98837.50
2023-01-12T18:17:49.137Z,98834.25
2023-01-12T18:20:18.295Z,98834.63
2023-01-12T18:22:46.385Z,98856.53
2023-01-12T18:25:15.267Z,98841.25
2023-01-12T18:27:45.045Z,98837.72
2023-01-12T18:30:30.276Z,98857.75
2023-01-12T18:33:06.839Z,98839.00
2023-01-12T18:35:37.245Z,98841.03
2023-01-12T18:38:05.427Z,98849.88
2023-01-12T18:40:34.326Z,98840.25
2023-01-12T18:43:04.852Z,98835.25
2023-01-12T18:45:34.011Z,98810.88
2023-01-12T18:48:19.897Z,98832.25
2023-01-12T18:51:22.925Z,98816.63
2023-01-12T18:53:51.972Z,98828.28
2023-01-12T18:56:19.769Z,98823.41
2023-01-12T18:58:48.872Z,98816.50
2023-01-12T19:01:20.023Z,98805.44
2023-01-12T19:04:03.490Z,98807.63
2023-01-12T19:09:53.414Z,98831.31
2023-01-12T19:12:30.647Z,98831.59
2023-01-12T19:15:30.055Z,98821.59
2023-01-12T19:17:57.965Z,98809.19
2023-01-12T19:20:29.049Z,98804.91
2023-01-12T19:23:16.902Z,98811.78
2023-01-12T19:26:02.764Z,98819.50
2023-01-12T19:28:36.303Z,98811.97
2023-01-12T19:31:06.269Z,98815.22
2023-01-12T19:33:34.299Z,98808.28
2023-01-12T19:36:05.914Z,98800.44
2023-01-12T19:38:35.893Z,98819.78
2023-01-12T19:41:11.508Z,98804.00
2023-01-12T19:43:41.012Z,98820.97
2023-01-12T19:46:08.709Z,98809.97
2023-01-12T19:48:37.479Z,98816.19
2023-01-12T19:51:09.520Z,98788.69
2023-01-12T19:53:39.889Z,98796.16
2023-01-12T19:56:11.186Z,98830.81
2023-01-12T19:58:39.047Z,98815.41
2023-01-12T20:01:07.674Z,98823.72
2023-01-12T20:03:36.144Z,98813.28
2023-01-12T20:06:06.714Z,98817.34
2023-01-12T20:08:34.740Z,98824.72
2023-01-12T20:11:05.458Z,98814.88
2023-01-12T20:13:33.515Z,98827.50
2023-01-12T20:16:06.516Z,98825.59
2023-01-12T20:18:34.345Z,98820.50
2023-01-12T20:21:03.400Z,98828.72
2023-01-12T20:23:31.625Z,98823.75
2023-01-12T20:25:59.361Z,98818.28
2023-01-12T20:28:31.441Z,98818.66
2023-01-12T20:30:59.492Z,98819.16
2023-01-12T20:33:28.294Z,98833.13
2023-01-12T20:35:55.913Z,98839.38
2023-01-12T20:38:25.166Z,98838.38
2023-01-12T20:40:52.808Z,98845.78
2023-01-12T20:43:22.546Z,98834.91
2023-01-12T20:45:52.388Z,98850.63
2023-01-12T20:48:20.394Z,98836.66
2023-01-12T20:50:48.539Z,98838.78
2023-01-12T20:53:17.108Z,98839.41
2023-01-12T20:55:45.377Z,98822.19
2023-01-12T20:58:16.124Z,98821.19
2023-01-12T21:00:43.996Z,98834.28
2023-01-12T21:03:13.265Z,98828.97
2023-01-12T21:05:44.596Z,98818.50
2023-01-12T21:08:13.177Z,98819.53
2023-01-12T21:10:42.470Z,98821.63
2023-01-12T21:13:10.400Z,98820.97
2023-01-12T21:15:38.532Z,98840.00
2023-01-12T21:18:06.167Z,98824.06
2023-01-12T21:20:35.690Z,98816.31
2023-01-12T21:23:04.613Z,98827.88
2023-01-12T21:25:32.219Z,98808.31
2023-01-12T21:27:59.786Z,98837.56
2023-01-12T21:30:29.744Z,98837.97
2023-01-12T21:32:57.778Z,98823.06
2023-01-12T21:35:26.385Z,98813.31
2023-01-12T21:37:55.456Z,98826.59
2023-01-12T21:40:22.953Z,98821.91
2023-01-12T21:43:09.295Z,98828.81
2023-01-12T21:45:38.063Z,98814.50
2023-01-12T21:48:06.068Z,98812.19
2023-01-12T21:50:34.270Z,98816.00
2023-01-12T21:53:03.975Z,98820.72
2023-01-12T21:55:32.292Z,98820.94
2023-01-12T21:58:01.757Z,98806.22
2023-01-12T22:00:29.984Z,98799.88
2023-01-12T22:03:00.417Z,98812.38
2023-01-12T22:05:27.994Z,98802.66
2023-01-12T22:07:57.669Z,98793.25
2023-01-12T22:10:30.392Z,98790.38
2023-01-12T22:12:59.854Z,98794.53
2023-01-12T22:15:29.093Z,98786.09
2023-01-12T22:17:56.990Z,98792.19
2023-01-12T22:20:25.450Z,98800.00
2023-01-12T22:22:54.132Z,98803.63
2023-01-12T22:25:21.959Z,98786.25
2023-01-12T22:27:50.986Z,98782.19
2023-01-12T22:30:20.577Z,98802.00
2023-01-12T22:32:48.571Z,98803.00
2023-01-12T22:35:16.456Z,98798.78
2023-01-12T22:37:44.037Z,98795.41
2023-01-12T22:40:13.075Z,98800.13
2023-01-12T22:42:58.311Z,98780.50
2023-01-12T22:45:27.418Z,98784.88
2023-01-12T22:47:58.771Z,98793.66
2023-01-12T22:50:26.414Z,98780.56
2023-01-12T22:52:54.536Z,98761.06
2023-01-12T22:55:23.395Z,98791.97
2023-01-12T22:57:51.239Z,98780.50
2023-01-12T23:00:20.741Z,98774.78
2023-01-12T23:03:02.636Z,98781.16
2023-01-12T23:05:33.428Z,98775.06
2023-01-12T23:08:01.047Z,98779.47
2023-01-12T23:10:30.236Z,98775.69
2023-01-12T23:13:15.851Z,98779.00
2023-01-12T23:15:46.981Z,98780.38
2023-01-12T23:18:17.571Z,98772.22
2023-01-12T23:20:45.941Z,98776.50
2023-01-12T23:23:13.835Z,98782.25
2023-01-12T23:25:44.327Z,98786.28
2023-01-12T23:28:12.883Z,98780.78
2023-01-12T23:30:41.157Z,98780.56
2023-01-12T23:33:08.886Z,98777.72
2023-01-12T23:35:39.484Z,98757.28
2023-01-12T23:38:07.511Z,98755.19
2023-01-12T23:40:35.238Z,98770.19
2023-01-12T23:43:03.208Z,98772.00
2023-01-12T23:45:33.801Z,98758.94
2023-01-12T23:48:01.368Z,98758.94
2023-01-12T23:50:28.916Z,98768.97
2023-01-12T23:53:00.734Z,98765.88
2023-01-12T23:55:29.918Z,98738.13
2023-01-12T23:57:57.980Z,98733.38
